sensor_id;sensor_type;location;lat;lon;timestamp;P1;durP1;ratioP1;P2;durP2;ratioP2
19255;SDS011;9762;52.490;13.410;2023-08-17T00:02:17;3.03;;;2.33;;
19255;SDS011;9762;52.490;13.410;2023-08-17T00:04:43;4.73;;;2.57;;
19255;SDS011;9762;52.490;13.410;2023-08-17T00:07:08;3.20;;;2.50;;
19255;SDS011;9762;52.490;13.410;2023-08-17T00:09:34;4.43;;;2.43;;
19255;SDS011;9762;52.490;13.410;2023-08-17T00:12:00;4.57;;;2.53;;
19255;SDS011;9762;52.490;13.410;2023-08-17T00:14:25;4.00;;;2.80;;
19255;SDS011;9762;52.490;13.410;2023-08-17T00:16:51;3.50;;;2.40;;
19255;SDS011;9762;52.490;13.410;2023-08-17T00:19:17;2.17;;;1.97;;
19255;SDS011;9762;52.490;13.410;2023-08-17T00:21:43;2.73;;;2.53;;
19255;SDS011;9762;52.490;13.410;2023-08-17T00:24:10;3.93;;;2.50;;
19255;SDS011;9762;52.490;13.410;2023-08-17T00:26:35;2.57;;;2.37;;
19255;SDS011;9762;52.490;13.410;2023-08-17T00:29:01;3.07;;;2.00;;
19255;SDS011;9762;52.490;13.410;2023-08-17T00:31:27;2.67;;;2.47;;
19255;SDS011;9762;52.490;13.410;2023-08-17T00:33:53;3.67;;;2.20;;
19255;SDS011;9762;52.490;13.410;2023-08-17T00:36:18;2.67;;;2.47;;
19255;SDS011;9762;52.490;13.410;2023-08-17T00:38:44;6.07;;;2.80;;
19255;SDS011;9762;52.490;13.410;2023-08-17T00:41:09;4.60;;;2.77;;
19255;SDS011;9762;52.490;13.410;2023-08-17T00:43:35;7.40;;;2.50;;
19255;SDS011;9762;52.490;13.410;2023-08-17T00:46:01;2.63;;;2.40;;
19255;SDS011;9762;52.490;13.410;2023-08-17T00:48:27;4.20;;;2.53;;
19255;SDS011;9762;52.490;13.410;2023-08-17T00:50:54;2.63;;;2.33;;
19255;SDS011;9762;52.490;13.410;2023-08-17T00:53:20;2.67;;;2.47;;
19255;SDS011;9762;52.490;13.410;2023-08-17T00:55:47;3.47;;;3.07;;
19255;SDS011;9762;52.490;13.410;2023-08-17T00:58:13;2.60;;;2.30;;
19255;SDS011;9762;52.490;13.410;2023-08-17T01:00:39;4.53;;;2.70;;
19255;SDS011;9762;52.490;13.410;2023-08-17T01:03:05;4.00;;;2.30;;
19255;SDS011;9762;52.490;13.410;2023-08-17T01:05:31;3.17;;;2.30;;
19255;SDS011;9762;52.490;13.410;2023-08-17T01:07:58;6.50;;;2.67;;
19255;SDS011;9762;52.490;13.410;2023-08-17T01:10:26;2.70;;;2.33;;
19255;SDS011;9762;52.490;13.410;2023-08-17T01:15:30;2.27;;;2.07;;
19255;SDS011;9762;52.490;13.410;2023-08-17T01:18:04;3.37;;;2.40;;
19255;SDS011;9762;52.490;13.410;2023-08-17T01:20:47;3.73;;;2.37;;
19255;SDS011;9762;52.490;13.410;2023-08-17T01:23:14;6.50;;;2.33;;
19255;SDS011;9762;52.490;13.410;2023-08-17T01:25:40;3.90;;;2.43;;
19255;SDS011;9762;52.490;13.410;2023-08-17T01:28:06;2.60;;;2.10;;
19255;SDS011;9762;52.490;13.410;2023-08-17T01:30:38;2.40;;;2.20;;
19255;SDS011;9762;52.490;13.410;2023-08-17T01:33:11;3.53;;;2.40;;
19255;SDS011;9762;52.490;13.410;2023-08-17T01:36:04;5.07;;;3.27;;
19255;SDS011;9762;52.490;13.410;2023-08-17T01:38:42;3.10;;;2.43;;
19255;SDS011;9762;52.490;13.410;2023-08-17T01:41:10;3.50;;;2.23;;
19255;SDS011;9762;52.490;13.410;2023-08-17T01:43:43;4.73;;;2.50;;
19255;SDS011;9762;52.490;13.410;2023-08-17T01:46:12;4.57;;;2.67;;
19255;SDS011;9762;52.490;13.410;2023-08-17T01:48:40;2.53;;;2.33;;
19255;SDS011;9762;52.490;13.410;2023-08-17T01:51:06;2.70;;;2.50;;
19255;SDS011;9762;52.490;13.410;2023-08-17T01:53:32;3.03;;;2.30;;
19255;SDS011;9762;52.490;13.410;2023-08-17T01:55:57;2.80;;;2.47;;
19255;SDS011;9762;52.490;13.410;2023-08-17T01:58:23;4.97;;;2.67;;
19255;SDS011;9762;52.490;13.410;2023-08-17T02:00:49;3.40;;;2.67;;
19255;SDS011;9762;52.490;13.410;2023-08-17T02:03:14;4.13;;;2.73;;
19255;SDS011;9762;52.490;13.410;2023-08-17T02:05:43;5.40;;;2.80;;
19255;SDS011;9762;52.490;13.410;2023-08-17T02:08:12;3.30;;;2.20;;
19255;SDS011;9762;52.490;13.410;2023-08-17T02:10:38;2.43;;;2.30;;
19255;SDS011;9762;52.490;13.410;2023-08-17T02:13:03;3.53;;;2.30;;
19255;SDS011;9762;52.490;13.410;2023-08-17T02:15:29;4.37;;;2.40;;
19255;SDS011;9762;52.490;13.410;2023-08-17T02:17:56;2.80;;;2.60;;
19255;SDS011;9762;52.490;13.410;2023-08-17T02:20:24;4.43;;;2.40;;
19255;SDS011;9762;52.490;13.410;2023-08-17T02:22:50;2.37;;;2.10;;
19255;SDS011;9762;52.490;13.410;2023-08-17T02:25:15;2.87;;;2.57;;
19255;SDS011;9762;52.490;13.410;2023-08-17T02:27:41;5.53;;;2.47;;
19255;SDS011;9762;52.490;13.410;2023-08-17T02:30:07;3.70;;;2.47;;
19255;SDS011;9762;52.490;13.410;2023-08-17T02:32:32;5.10;;;2.63;;
19255;SDS011;9762;52.490;13.410;2023-08-17T02:34:58;5.07;;;2.63;;
19255;SDS011;9762;52.490;13.410;2023-08-17T02:37:24;5.47;;;2.50;;
19255;SDS011;9762;52.490;13.410;2023-08-17T02:39:49;3.20;;;2.40;;
19255;SDS011;9762;52.490;13.410;2023-08-17T02:42:15;3.73;;;2.37;;
19255;SDS011;9762;52.490;13.410;2023-08-17T02:44:41;3.23;;;2.30;;
19255;SDS011;9762;52.490;13.410;2023-08-17T02:47:06;3.67;;;2.20;;
19255;SDS011;9762;52.490;13.410;2023-08-17T02:49:32;3.83;;;2.70;;
19255;SDS011;9762;52.490;13.410;2023-08-17T02:51:57;4.70;;;2.53;;
19255;SDS011;9762;52.490;13.410;2023-08-17T02:54:23;2.57;;;2.27;;
19255;SDS011;9762;52.490;13.410;2023-08-17T02:56:49;2.70;;;2.50;;
19255;SDS011;9762;52.490;13.410;2023-08-17T02:59:14;3.47;;;2.03;;
19255;SDS011;9762;52.490;13.410;2023-08-17T03:01:40;4.83;;;2.37;;
19255;SDS011;9762;52.490;13.410;2023-08-17T03:04:05;4.63;;;2.67;;
19255;SDS011;9762;52.490;13.410;2023-08-17T03:06:31;3.63;;;2.70;;
19255;SDS011;9762;52.490;13.410;2023-08-17T03:08:56;2.63;;;2.13;;
19255;SDS011;9762;52.490;13.410;2023-08-17T03:11:22;3.17;;;2.33;;
19255;SDS011;9762;52.490;13.410;2023-08-17T03:13:48;6.20;;;2.87;;
19255;SDS011;9762;52.490;13.410;2023-08-17T03:16:13;11.13;;;3.17;;
19255;SDS011;9762;52.490;13.410;2023-08-17T03:18:40;4.87;;;2.17;;
19255;SDS011;9762;52.490;13.410;2023-08-17T03:21:06;7.33;;;3.00;;
19255;SDS011;9762;52.490;13.410;2023-08-17T03:23:32;2.30;;;2.13;;
19255;SDS011;9762;52.490;13.410;2023-08-17T03:25:57;3.60;;;2.50;;
19255;SDS011;9762;52.490;13.410;2023-08-17T03:28:23;5.67;;;2.60;;
19255;SDS011;9762;52.490;13.410;2023-08-17T03:30:50;2.50;;;2.10;;
19255;SDS011;9762;52.490;13.410;2023-08-17T03:33:20;4.50;;;2.50;;
19255;SDS011;9762;52.490;13.410;2023-08-17T03:35:45;3.07;;;2.77;;
19255;SDS011;9762;52.490;13.410;2023-08-17T03:38:11;3.00;;;2.40;;
19255;SDS011;9762;52.490;13.410;2023-08-17T03:40:37;5.43;;;2.43;;
19255;SDS011;9762;52.490;13.410;2023-08-17T03:43:03;4.57;;;2.37;;
19255;SDS011;9762;52.490;13.410;2023-08-17T03:45:29;2.77;;;2.20;;
19255;SDS011;9762;52.490;13.410;2023-08-17T03:47:55;4.23;;;2.10;;
19255;SDS011;9762;52.490;13.410;2023-08-17T03:50:21;2.77;;;2.50;;
19255;SDS011;9762;52.490;13.410;2023-08-17T03:52:48;3.93;;;2.60;;
19255;SDS011;9762;52.490;13.410;2023-08-17T03:55:13;5.53;;;2.63;;
19255;SDS011;9762;52.490;13.410;2023-08-17T03:57:39;2.67;;;2.13;;
19255;SDS011;9762;52.490;13.410;2023-08-17T04:00:05;3.10;;;1.90;;
19255;SDS011;9762;52.490;13.410;2023-08-17T04:02:32;2.17;;;2.07;;
19255;SDS011;9762;52.490;13.410;2023-08-17T04:04:57;4.03;;;2.20;;
19255;SDS011;9762;52.490;13.410;2023-08-17T04:07:23;3.70;;;2.10;;
19255;SDS011;9762;52.490;13.410;2023-08-17T04:09:48;3.60;;;2.27;;
19255;SDS011;9762;52.490;13.410;2023-08-17T04:12:14;3.00;;;2.50;;
19255;SDS011;9762;52.490;13.410;2023-08-17T04:14:40;3.10;;;2.37;;
19255;SDS011;9762;52.490;13.410;2023-08-17T04:17:05;5.40;;;2.30;;
19255;SDS011;9762;52.490;13.410;2023-08-17T04:19:31;4.03;;;2.07;;
19255;SDS011;9762;52.490;13.410;2023-08-17T04:21:57;2.87;;;2.10;;
19255;SDS011;9762;52.490;13.410;2023-08-17T04:24:23;5.27;;;2.57;;
19255;SDS011;9762;52.490;13.410;2023-08-17T04:26:49;7.87;;;2.03;;
19255;SDS011;9762;52.490;13.410;2023-08-17T04:29:15;4.03;;;2.20;;
19255;SDS011;9762;52.490;13.410;2023-08-17T04:31:40;4.23;;;2.20;;
19255;SDS011;9762;52.490;13.410;2023-08-17T04:34:06;2.57;;;2.10;;
19255;SDS011;9762;52.490;13.410;2023-08-17T04:36:32;7.80;;;2.50;;
19255;SDS011;9762;52.490;13.410;2023-08-17T04:38:57;8.80;;;2.20;;
19255;SDS011;9762;52.490;13.410;2023-08-17T04:41:23;2.93;;;2.10;;
19255;SDS011;9762;52.490;13.410;2023-08-17T04:43:49;3.50;;;2.10;;
19255;SDS011;9762;52.490;13.410;2023-08-17T04:46:14;2.63;;;2.00;;
19255;SDS011;9762;52.490;13.410;2023-08-17T04:48:40;4.27;;;3.80;;
19255;SDS011;9762;52.490;13.410;2023-08-17T04:51:06;3.33;;;2.73;;
19255;SDS011;9762;52.490;13.410;2023-08-17T04:53:31;4.20;;;2.63;;
19255;SDS011;9762;52.490;13.410;2023-08-17T04:55:58;4.13;;;2.23;;
19255;SDS011;9762;52.490;13.410;2023-08-17T04:58:24;3.63;;;2.23;;
19255;SDS011;9762;52.490;13.410;2023-08-17T05:00:49;3.17;;;2.00;;
19255;SDS011;9762;52.490;13.410;2023-08-17T05:03:16;2.87;;;2.50;;
19255;SDS011;9762;52.490;13.410;2023-08-17T05:05:41;5.30;;;2.10;;
19255;SDS011;9762;52.490;13.410;2023-08-17T05:08:07;3.90;;;2.17;;
19255;SDS011;9762;52.490;13.410;2023-08-17T05:10:33;2.50;;;1.90;;
19255;SDS011;9762;52.490;13.410;2023-08-17T05:12:58;5.20;;;1.80;;
19255;SDS011;9762;52.490;13.410;2023-08-17T05:15:24;4.43;;;2.20;;
19255;SDS011;9762;52.490;13.410;2023-08-17T05:17:50;2.13;;;2.03;;
19255;SDS011;9762;52.490;13.410;2023-08-17T05:20:15;3.07;;;2.20;;
19255;SDS011;9762;52.490;13.410;2023-08-17T05:22:41;2.67;;;2.17;;
19255;SDS011;9762;52.490;13.410;2023-08-17T05:25:07;2.93;;;2.73;;
19255;SDS011;9762;52.490;13.410;2023-08-17T05:27:33;6.53;;;4.13;;
19255;SDS011;9762;52.490;13.410;2023-08-17T05:29:58;3.27;;;2.87;;
19255;SDS011;9762;52.490;13.410;2023-08-17T05:32:24;2.37;;;2.20;;
19255;SDS011;9762;52.490;13.410;2023-08-17T05:34:50;2.27;;;2.13;;
19255;SDS011;9762;52.490;13.410;2023-08-17T05:37:15;3.27;;;2.13;;
19255;SDS011;9762;52.490;13.410;2023-08-17T05:39:41;2.47;;;2.10;;
19255;SDS011;9762;52.490;13.410;2023-08-17T05:42:07;3.13;;;2.17;;
19255;SDS011;9762;52.490;13.410;2023-08-17T05:44:34;2.93;;;2.23;;
19255;SDS011;9762;52.490;13.410;2023-08-17T05:47:00;4.07;;;2.57;;
19255;SDS011;9762;52.490;13.410;2023-08-17T05:49:26;4.10;;;2.07;;
19255;SDS011;9762;52.490;13.410;2023-08-17T05:51:51;21.00;;;16.53;;
19255;SDS011;9762;52.490;13.410;2023-08-17T05:54:17;13.30;;;8.53;;
19255;SDS011;9762;52.490;13.410;2023-08-17T05:56:43;5.53;;;2.30;;
19255;SDS011;9762;52.490;13.410;2023-08-17T05:59:12;2.13;;;2.03;;
19255;SDS011;9762;52.490;13.410;2023-08-17T06:01:38;3.23;;;2.33;;
19255;SDS011;9762;52.490;13.410;2023-08-17T06:04:05;6.20;;;1.93;;
19255;SDS011;9762;52.490;13.410;2023-08-17T06:06:31;2.00;;;1.87;;
19255;SDS011;9762;52.490;13.410;2023-08-17T06:08:57;5.00;;;2.23;;
19255;SDS011;9762;52.490;13.410;2023-08-17T06:11:22;2.13;;;2.00;;
19255;SDS011;9762;52.490;13.410;2023-08-17T06:13:49;2.67;;;2.00;;
19255;SDS011;9762;52.490;13.410;2023-08-17T06:16:14;2.37;;;2.00;;
19255;SDS011;9762;52.490;13.410;2023-08-17T06:18:40;5.13;;;1.90;;
19255;SDS011;9762;52.490;13.410;2023-08-17T06:21:07;6.67;;;2.00;;
19255;SDS011;9762;52.490;13.410;2023-08-17T06:23:33;2.43;;;2.10;;
19255;SDS011;9762;52.490;13.410;2023-08-17T06:25:59;3.80;;;2.43;;
19255;SDS011;9762;52.490;13.410;2023-08-17T06:28:25;4.43;;;2.40;;
19255;SDS011;9762;52.490;13.410;2023-08-17T06:30:51;4.07;;;2.10;;
19255;SDS011;9762;52.490;13.410;2023-08-17T06:33:18;4.77;;;2.03;;
19255;SDS011;9762;52.490;13.410;2023-08-17T06:35:44;3.63;;;2.47;;
19255;SDS011;9762;52.490;13.410;2023-08-17T06:38:09;3.13;;;2.17;;
19255;SDS011;9762;52.490;13.410;2023-08-17T06:40:35;3.47;;;2.03;;
19255;SDS011;9762;52.490;13.410;2023-08-17T06:43:01;3.03;;;1.87;;
19255;SDS011;9762;52.490;13.410;2023-08-17T06:45:26;3.93;;;1.97;;
19255;SDS011;9762;52.490;13.410;2023-08-17T06:47:52;5.53;;;2.10;;
19255;SDS011;9762;52.490;13.410;2023-08-17T06:50:17;4.57;;;2.30;;
19255;SDS011;9762;52.490;13.410;2023-08-17T06:52:43;3.60;;;2.20;;
19255;SDS011;9762;52.490;13.410;2023-08-17T06:55:09;2.23;;;2.07;;
19255;SDS011;9762;52.490;13.410;2023-08-17T06:57:37;3.80;;;1.67;;
19255;SDS011;9762;52.490;13.410;2023-08-17T07:00:03;6.03;;;2.40;;
19255;SDS011;9762;52.490;13.410;2023-08-17T07:02:30;4.00;;;2.77;;
19255;SDS011;9762;52.490;13.410;2023-08-17T07:04:56;4.00;;;2.70;;
19255;SDS011;9762;52.490;13.410;2023-08-17T07:07:22;3.87;;;2.00;;
19255;SDS011;9762;52.490;13.410;2023-08-17T07:09:47;3.17;;;2.00;;
19255;SDS011;9762;52.490;13.410;2023-08-17T07:12:13;2.53;;;2.33;;
19255;SDS011;9762;52.490;13.410;2023-08-17T07:14:39;8.60;;;2.23;;
19255;SDS011;9762;52.490;13.410;2023-08-17T07:17:04;4.50;;;2.80;;
19255;SDS011;9762;52.490;13.410;2023-08-17T07:19:30;2.37;;;2.17;;
19255;SDS011;9762;52.490;13.410;2023-08-17T07:21:55;4.80;;;2.30;;
19255;SDS011;9762;52.490;13.410;2023-08-17T07:24:21;2.63;;;2.40;;
19255;SDS011;9762;52.490;13.410;2023-08-17T07:26:46;3.23;;;2.23;;
19255;SDS011;9762;52.490;13.410;2023-08-17T07:29:12;2.93;;;1.87;;
19255;SDS011;9762;52.490;13.410;2023-08-17T07:31:38;2.60;;;2.40;;
19255;SDS011;9762;52.490;13.410;2023-08-17T07:34:04;6.93;;;2.50;;
19255;SDS011;9762;52.490;13.410;2023-08-17T07:36:31;2.60;;;2.40;;
19255;SDS011;9762;52.490;13.410;2023-08-17T07:38:57;4.03;;;3.40;;
19255;SDS011;9762;52.490;13.410;2023-08-17T07:41:22;4.97;;;3.63;;
19255;SDS011;9762;52.490;13.410;2023-08-17T07:43:48;2.83;;;2.63;;
19255;SDS011;9762;52.490;13.410;2023-08-17T07:46:14;4.23;;;2.50;;
19255;SDS011;9762;52.490;13.410;2023-08-17T07:48:39;2.33;;;2.10;;
19255;SDS011;9762;52.490;13.410;2023-08-17T07:51:05;3.20;;;2.40;;
19255;SDS011;9762;52.490;13.410;2023-08-17T07:53:31;2.60;;;2.40;;
19255;SDS011;9762;52.490;13.410;2023-08-17T07:55:56;4.77;;;2.50;;
19255;SDS011;9762;52.490;13.410;2023-08-17T07:58:22;4.47;;;2.70;;
19255;SDS011;9762;52.490;13.410;2023-08-17T08:00:48;3.87;;;2.30;;
19255;SDS011;9762;52.490;13.410;2023-08-17T08:03:14;2.97;;;2.77;;
19255;SDS011;9762;52.490;13.410;2023-08-17T08:05:40;2.80;;;2.60;;
19255;SDS011;9762;52.490;13.410;2023-08-17T08:08:06;2.90;;;2.17;;
19255;SDS011;9762;52.490;13.410;2023-08-17T08:10:31;3.20;;;2.47;;
19255;SDS011;9762;52.490;13.410;2023-08-17T08:12:57;5.27;;;2.60;;
19255;SDS011;9762;52.490;13.410;2023-08-17T08:15:23;2.57;;;2.37;;
19255;SDS011;9762;52.490;13.410;2023-08-17T08:17:48;5.50;;;2.53;;
19255;SDS011;9762;52.490;13.410;2023-08-17T08:20:14;2.53;;;2.00;;
19255;SDS011;9762;52.490;13.410;2023-08-17T08:22:40;2.67;;;2.47;;
19255;SDS011;9762;52.490;13.410;2023-08-17T08:25:05;5.50;;;2.90;;
19255;SDS011;9762;52.490;13.410;2023-08-17T08:27:31;3.40;;;2.83;;
19255;SDS011;9762;52.490;13.410;2023-08-17T08:29:57;2.80;;;2.60;;
19255;SDS011;9762;52.490;13.410;2023-08-17T08:32:22;2.80;;;2.40;;
19255;SDS011;9762;52.490;13.410;2023-08-17T08:34:48;4.30;;;2.67;;
19255;SDS011;9762;52.490;13.410;2023-08-17T08:37:14;4.63;;;2.43;;
19255;SDS011;9762;52.490;13.410;2023-08-17T08:39:49;2.95;;;2.40;;
19255;SDS011;9762;52.490;13.410;2023-08-17T08:42:16;2.63;;;2.47;;
19255;SDS011;9762;52.490;13.410;2023-08-17T08:44:42;5.68;;;3.03;;
19255;SDS011;9762;52.490;13.410;2023-08-17T08:47:08;6.00;;;2.75;;
19255;SDS011;9762;52.490;13.410;2023-08-17T08:49:36;3.70;;;2.97;;
19255;SDS011;9762;52.490;13.410;2023-08-17T08:52:07;6.97;;;2.95;;
19255;SDS011;9762;52.490;13.410;2023-08-17T08:54:33;5.68;;;3.22;;
19255;SDS011;9762;52.490;13.410;2023-08-17T08:57:03;6.75;;;2.67;;
19255;SDS011;9762;52.490;13.410;2023-08-17T08:59:34;4.77;;;2.67;;
19255;SDS011;9762;52.490;13.410;2023-08-17T09:02:01;3.77;;;3.47;;
19255;SDS011;9762;52.490;13.410;2023-08-17T09:04:28;4.30;;;3.90;;
19255;SDS011;9762;52.490;13.410;2023-08-17T09:06:54;2.90;;;2.80;;
19255;SDS011;9762;52.490;13.410;2023-08-17T09:09:21;3.30;;;3.10;;
19255;SDS011;9762;52.490;13.410;2023-08-17T09:11:47;3.33;;;3.03;;
19255;SDS011;9762;52.490;13.410;2023-08-17T09:14:13;7.13;;;3.00;;
19255;SDS011;9762;52.490;13.410;2023-08-17T09:16:39;5.77;;;3.40;;
19255;SDS011;9762;52.490;13.410;2023-08-17T09:19:05;5.17;;;4.77;;
19255;SDS011;9762;52.490;13.410;2023-08-17T09:21:31;9.77;;;7.20;;
19255;SDS011;9762;52.490;13.410;2023-08-17T09:24:00;10.90;;;8.70;;
19255;SDS011;9762;52.490;13.410;2023-08-17T09:26:29;8.18;;;5.32;;
19255;SDS011;9762;52.490;13.410;2023-08-17T09:28:57;5.20;;;3.80;;
19255;SDS011;9762;52.490;13.410;2023-08-17T09:31:24;6.93;;;5.75;;
19255;SDS011;9762;52.490;13.410;2023-08-17T09:33:50;4.63;;;3.92;;
19255;SDS011;9762;52.490;13.410;2023-08-17T09:36:19;6.28;;;4.75;;
19255;SDS011;9762;52.490;13.410;2023-08-17T09:38:52;9.93;;;7.35;;
19255;SDS011;9762;52.490;13.410;2023-08-17T09:41:18;8.82;;;7.55;;
19255;SDS011;9762;52.490;13.410;2023-08-17T09:43:44;12.40;;;8.85;;
19255;SDS011;9762;52.490;13.410;2023-08-17T09:46:11;6.55;;;5.18;;
19255;SDS011;9762;52.490;13.410;2023-08-17T09:48:36;4.82;;;3.33;;
19255;SDS011;9762;52.490;13.410;2023-08-17T09:51:02;4.15;;;3.75;;
19255;SDS011;9762;52.490;13.410;2023-08-17T09:53:28;5.75;;;3.03;;
19255;SDS011;9762;52.490;13.410;2023-08-17T09:55:53;3.63;;;3.33;;
19255;SDS011;9762;52.490;13.410;2023-08-17T09:58:21;6.45;;;4.13;;
19255;SDS011;9762;52.490;13.410;2023-08-17T10:00:48;3.33;;;3.05;;
19255;SDS011;9762;52.490;13.410;2023-08-17T10:03:15;4.65;;;3.42;;
19255;SDS011;9762;52.490;13.410;2023-08-17T10:05:46;4.38;;;3.97;;
19255;SDS011;9762;52.490;13.410;2023-08-17T10:08:23;3.35;;;3.08;;
19255;SDS011;9762;52.490;13.410;2023-08-17T10:10:50;3.33;;;3.03;;
19255;SDS011;9762;52.490;13.410;2023-08-17T10:18:53;4.20;;;3.80;;
19255;SDS011;9762;52.490;13.410;2023-08-17T10:21:25;5.80;;;3.08;;
19255;SDS011;9762;52.490;13.410;2023-08-17T10:23:54;4.43;;;4.03;;
19255;SDS011;9762;52.490;13.410;2023-08-17T10:26:21;3.85;;;3.58;;
19255;SDS011;9762;52.490;13.410;2023-08-17T10:28:47;3.97;;;3.00;;
19255;SDS011;9762;52.490;13.410;2023-08-17T10:31:14;3.72;;;3.03;;
19255;SDS011;9762;52.490;13.410;2023-08-17T10:33:39;5.50;;;3.17;;
19255;SDS011;9762;52.490;13.410;2023-08-17T10:36:08;3.25;;;3.03;;
19255;SDS011;9762;52.490;13.410;2023-08-17T10:38:35;5.40;;;3.28;;
19255;SDS011;9762;52.490;13.410;2023-08-17T10:41:07;3.15;;;2.85;;
19255;SDS011;9762;52.490;13.410;2023-08-17T10:43:56;3.50;;;3.28;;
19255;SDS011;9762;52.490;13.410;2023-08-17T10:46:33;3.28;;;2.97;;
19255;SDS011;9762;52.490;13.410;2023-08-17T10:49:05;5.53;;;3.30;;
19255;SDS011;9762;52.490;13.410;2023-08-17T10:51:32;3.47;;;3.22;;
19255;SDS011;9762;52.490;13.410;2023-08-17T10:53:58;5.68;;;3.30;;
19255;SDS011;9762;52.490;13.410;2023-08-17T10:56:28;3.25;;;3.05;;
19255;SDS011;9762;52.490;13.410;2023-08-17T10:58:54;2.92;;;2.72;;
19255;SDS011;9762;52.490;13.410;2023-08-17T11:01:36;3.25;;;3.00;;
19255;SDS011;9762;52.490;13.410;2023-08-17T11:04:13;5.78;;;2.80;;
19255;SDS011;9762;52.490;13.410;2023-08-17T11:06:42;3.10;;;2.90;;
19255;SDS011;9762;52.490;13.410;2023-08-17T11:09:08;4.85;;;2.78;;
19255;SDS011;9762;52.490;13.410;2023-08-17T11:11:34;3.20;;;2.88;;
19255;SDS011;9762;52.490;13.410;2023-08-17T11:14:00;2.88;;;2.70;;
19255;SDS011;9762;52.490;13.410;2023-08-17T11:16:25;3.50;;;3.20;;
19255;SDS011;9762;52.490;13.410;2023-08-17T11:18:51;2.45;;;2.35;;
19255;SDS011;9762;52.490;13.410;2023-08-17T11:21:17;2.97;;;2.75;;
19255;SDS011;9762;52.490;13.410;2023-08-17T11:23:43;4.57;;;3.00;;
19255;SDS011;9762;52.490;13.410;2023-08-17T11:26:09;6.47;;;2.80;;
19255;SDS011;9762;52.490;13.410;2023-08-17T11:28:35;4.10;;;2.95;;
19255;SDS011;9762;52.490;13.410;2023-08-17T11:31:06;5.00;;;2.72;;
19255;SDS011;9762;52.490;13.410;2023-08-17T11:33:34;3.00;;;2.70;;
19255;SDS011;9762;52.490;13.410;2023-08-17T11:36:03;3.30;;;3.08;;
19255;SDS011;9762;52.490;13.410;2023-08-17T11:38:34;3.28;;;3.08;;
19255;SDS011;9762;52.490;13.410;2023-08-17T11:41:01;7.85;;;3.17;;
19255;SDS011;9762;52.490;13.410;2023-08-17T11:43:32;3.25;;;2.97;;
19255;SDS011;9762;52.490;13.410;2023-08-17T11:45:57;3.90;;;3.33;;
19255;SDS011;9762;52.490;13.410;2023-08-17T11:48:24;3.58;;;3.30;;
19255;SDS011;9762;52.490;13.410;2023-08-17T11:50:51;3.30;;;3.00;;
19255;SDS011;9762;52.490;13.410;2023-08-17T11:53:17;5.82;;;3.33;;
19255;SDS011;9762;52.490;13.410;2023-08-17T11:55:42;5.03;;;2.95;;
19255;SDS011;9762;52.490;13.410;2023-08-17T11:58:08;3.05;;;2.90;;
19255;SDS011;9762;52.490;13.410;2023-08-17T12:00:35;6.43;;;3.08;;
19255;SDS011;9762;52.490;13.410;2023-08-17T12:03:04;3.55;;;3.35;;
19255;SDS011;9762;52.490;13.410;2023-08-17T12:05:30;5.00;;;3.90;;
19255;SDS011;9762;52.490;13.410;2023-08-17T12:07:57;4.07;;;3.78;;
19255;SDS011;9762;52.490;13.410;2023-08-17T12:10:30;3.00;;;2.90;;
19255;SDS011;9762;52.490;13.410;2023-08-17T12:12:57;3.53;;;3.20;;
19255;SDS011;9762;52.490;13.410;2023-08-17T12:15:35;3.50;;;3.20;;
19255;SDS011;9762;52.490;13.410;2023-08-17T12:18:03;3.78;;;3.05;;
19255;SDS011;9762;52.490;13.410;2023-08-17T12:20:29;2.95;;;2.85;;
19255;SDS011;9762;52.490;13.410;2023-08-17T12:22:57;3.33;;;3.13;;
19255;SDS011;9762;52.490;13.410;2023-08-17T12:25:26;3.38;;;3.10;;
19255;SDS011;9762;52.490;13.410;2023-08-17T12:27:52;3.35;;;3.15;;
19255;SDS011;9762;52.490;13.410;2023-08-17T12:30:25;3.35;;;3.15;;
19255;SDS011;9762;52.490;13.410;2023-08-17T12:32:51;3.20;;;3.03;;
19255;SDS011;9762;52.490;13.410;2023-08-17T12:35:17;3.40;;;3.00;;
19255;SDS011;9762;52.490;13.410;2023-08-17T12:37:42;3.13;;;3.03;;
19255;SDS011;9762;52.490;13.410;2023-08-17T12:40:08;3.38;;;3.20;;
19255;SDS011;9762;52.490;13.410;2023-08-17T12:42:35;3.30;;;3.10;;
19255;SDS011;9762;52.490;13.410;2023-08-17T12:45:00;3.72;;;3.47;;
19255;SDS011;9762;52.490;13.410;2023-08-17T12:47:26;4.63;;;3.20;;
19255;SDS011;9762;52.490;13.410;2023-08-17T12:49:52;4.10;;;3.10;;
19255;SDS011;9762;52.490;13.410;2023-08-17T12:52:17;5.15;;;3.42;;
19255;SDS011;9762;52.490;13.410;2023-08-17T12:54:43;4.03;;;3.67;;
19255;SDS011;9762;52.490;13.410;2023-08-17T12:57:08;4.18;;;3.88;;
19255;SDS011;9762;52.490;13.410;2023-08-17T12:59:34;3.65;;;3.45;;
19255;SDS011;9762;52.490;13.410;2023-08-17T13:02:00;4.28;;;3.08;;
19255;SDS011;9762;52.490;13.410;2023-08-17T13:04:25;4.25;;;3.55;;
19255;SDS011;9762;52.490;13.410;2023-08-17T13:06:51;4.68;;;4.30;;
19255;SDS011;9762;52.490;13.410;2023-08-17T13:09:17;5.15;;;4.60;;
19255;SDS011;9762;52.490;13.410;2023-08-17T13:11:44;5.20;;;4.90;;
19255;SDS011;9762;52.490;13.410;2023-08-17T13:14:10;4.63;;;4.28;;
19255;SDS011;9762;52.490;13.410;2023-08-17T13:16:37;6.53;;;5.20;;
19255;SDS011;9762;52.490;13.410;2023-08-17T13:19:02;5.18;;;4.65;;
19255;SDS011;9762;52.490;13.410;2023-08-17T13:21:28;6.05;;;5.45;;
19255;SDS011;9762;52.490;13.410;2023-08-17T13:23:54;5.28;;;4.78;;
19255;SDS011;9762;52.490;13.410;2023-08-17T13:26:21;4.75;;;4.40;;
19255;SDS011;9762;52.490;13.410;2023-08-17T13:28:47;4.93;;;4.57;;
19255;SDS011;9762;52.490;13.410;2023-08-17T13:31:13;5.20;;;4.80;;
19255;SDS011;9762;52.490;13.410;2023-08-17T13:33:38;4.00;;;3.78;;
19255;SDS011;9762;52.490;13.410;2023-08-17T13:36:04;4.25;;;3.97;;
19255;SDS011;9762;52.490;13.410;2023-08-17T13:38:30;4.72;;;4.15;;
19255;SDS011;9762;52.490;13.410;2023-08-17T13:40:56;3.92;;;3.70;;
19255;SDS011;9762;52.490;13.410;2023-08-17T13:43:22;4.18;;;3.97;;
19255;SDS011;9762;52.490;13.410;2023-08-17T13:45:47;3.95;;;3.55;;
19255;SDS011;9762;52.490;13.410;2023-08-17T13:48:13;5.15;;;4.05;;
19255;SDS011;9762;52.490;13.410;2023-08-17T13:50:40;3.75;;;3.55;;
19255;SDS011;9762;52.490;13.410;2023-08-17T13:53:06;4.53;;;4.22;;
19255;SDS011;9762;52.490;13.410;2023-08-17T13:55:31;4.15;;;3.75;;
19255;SDS011;9762;52.490;13.410;2023-08-17T13:57:57;7.05;;;3.97;;
19255;SDS011;9762;52.490;13.410;2023-08-17T14:00:23;5.32;;;3.80;;
19255;SDS011;9762;52.490;13.410;2023-08-17T14:02:49;5.10;;;4.80;;
19255;SDS011;9762;52.490;13.410;2023-08-17T14:05:15;4.35;;;3.75;;
19255;SDS011;9762;52.490;13.410;2023-08-17T14:07:41;4.55;;;4.22;;
19255;SDS011;9762;52.490;13.410;2023-08-17T14:10:07;4.53;;;4.18;;
19255;SDS011;9762;52.490;13.410;2023-08-17T14:12:33;4.00;;;3.70;;
19255;SDS011;9762;52.490;13.410;2023-08-17T14:14:59;4.43;;;4.03;;
19255;SDS011;9762;52.490;13.410;2023-08-17T14:17:25;5.45;;;3.53;;
19255;SDS011;9762;52.490;13.410;2023-08-17T14:19:51;4.00;;;3.90;;
19255;SDS011;9762;52.490;13.410;2023-08-17T14:22:16;3.60;;;3.40;;
19255;SDS011;9762;52.490;13.410;2023-08-17T14:24:42;4.50;;;4.03;;
19255;SDS011;9762;52.490;13.410;2023-08-17T14:27:08;5.18;;;4.78;;
19255;SDS011;9762;52.490;13.410;2023-08-17T14:29:33;4.20;;;3.80;;
19255;SDS011;9762;52.490;13.410;2023-08-17T14:31:59;4.38;;;4.07;;
19255;SDS011;9762;52.490;13.410;2023-08-17T14:34:24;5.00;;;4.40;;
19255;SDS011;9762;52.490;13.410;2023-08-17T14:36:51;4.88;;;4.43;;
19255;SDS011;9762;52.490;13.410;2023-08-17T14:39:16;6.18;;;5.57;;
19255;SDS011;9762;52.490;13.410;2023-08-17T14:41:42;4.47;;;4.10;;
19255;SDS011;9762;52.490;13.410;2023-08-17T14:44:08;5.68;;;4.18;;
19255;SDS011;9762;52.490;13.410;2023-08-17T14:46:33;4.13;;;3.67;;
19255;SDS011;9762;52.490;13.410;2023-08-17T14:49:00;3.97;;;3.78;;
19255;SDS011;9762;52.490;13.410;2023-08-17T14:51:25;3.65;;;3.28;;
19255;SDS011;9762;52.490;13.410;2023-08-17T14:53:53;3.75;;;3.42;;